sensor_id;sensor_type;location;lat;lon;timestamp;pressure;altitude;pressure_sealevel;temperature;humidity
6853;BME280;3465;42.144;24.722;2023-01-31T00:00:11;143520.03;;;2.37;92.73
6853;BME280;3465;42.144;24.722;2023-01-31T00:02:36;143554.81;;;2.51;91.08
6853;BME280;3465;42.144;24.722;2023-01-31T00:05:02;143577.22;;;2.60;91.00
6853;BME280;3465;42.144;24.722;2023-01-31T00:07:27;143589.66;;;2.65;90.77
6853;BME280;3465;42.144;24.722;2023-01-31T00:09:53;143607.03;;;2.72;89.26
6853;BME280;3465;42.144;24.722;2023-01-31T00:12:18;143620.72;;;2.77;89.30
6853;BME280;3465;42.144;24.722;2023-01-31T00:14:43;143624.47;;;2.79;89.89
6853;BME280;3465;42.144;24.722;2023-01-31T00:17:09;143636.91;;;2.84;89.62
6853;BME280;3465;42.144;24.722;2023-01-31T00:19:34;143649.34;;;2.89;90.39
6853;BME280;3465;42.144;24.722;2023-01-31T00:21:59;143644.34;;;2.87;90.07
6853;BME280;3465;42.144;24.722;2023-01-31T00:24:25;143635.63;;;2.83;89.60
6853;BME280;3465;42.144;24.722;2023-01-31T00:26:50;143635.63;;;2.83;90.42
6853;BME280;3465;42.144;24.722;2023-01-31T00:29:23;143628.19;;;2.80;90.65
6853;BME280;3465;42.144;24.722;2023-01-31T00:31:50;143629.44;;;2.81;91.13
6853;BME280;3465;42.144;24.722;2023-01-31T00:34:15;143614.50;;;2.75;89.87
6853;BME280;3465;42.144;24.722;2023-01-31T00:36:41;143672.97;;;2.99;88.71
6853;BME280;3465;42.144;24.722;2023-01-31T00:39:07;143686.63;;;3.04;88.16
6853;BME280;3465;42.144;24.722;2023-01-31T00:41:33;143687.88;;;3.05;87.54
6853;BME280;3465;42.144;24.722;2023-01-31T00:43:59;143695.34;;;3.08;87.96
6853;BME280;3465;42.144;24.722;2023-01-31T00:46:25;143695.34;;;3.08;88.07
6853;BME280;3465;42.144;24.722;2023-01-31T00:48:51;143691.59;;;3.06;88.66
6853;BME280;3465;42.144;24.722;2023-01-31T00:51:18;143699.06;;;3.09;88.76
6853;BME280;3465;42.144;24.722;2023-01-31T00:53:44;143695.34;;;3.08;88.98
6853;BME280;3465;42.144;24.722;2023-01-31T00:56:12;143717.69;;;3.17;88.56
6853;BME280;3465;42.144;24.722;2023-01-31T00:58:39;143723.94;;;3.19;88.13
6853;BME280;3465;42.144;24.722;2023-01-31T01:01:12;143733.88;;;3.23;88.05
6853;BME280;3465;42.144;24.722;2023-01-31T01:03:39;143726.41;;;3.20;87.10
6853;BME280;3465;42.144;24.722;2023-01-31T01:06:06;143762.50;;;3.35;86.91
6853;BME280;3465;42.144;24.722;2023-01-31T01:08:32;143776.19;;;3.40;87.33
6853;BME280;3465;42.144;24.722;2023-01-31T01:11:06;143773.69;;;3.39;88.03
6853;BME280;3465;42.144;24.722;2023-01-31T01:13:31;143768.75;;;3.37;88.48
6853;BME280;3465;42.144;24.722;2023-01-31T01:15:56;143742.59;;;3.27;89.49
6853;BME280;3465;42.144;24.722;2023-01-31T01:18:22;143730.16;;;3.22;90.31
6853;BME280;3465;42.144;24.722;2023-01-31T01:20:47;143726.41;;;3.20;90.44
6853;BME280;3465;42.144;24.722;2023-01-31T01:23:12;143748.84;;;3.29;90.56
6853;BME280;3465;42.144;24.722;2023-01-31T01:25:42;143730.16;;;3.22;91.62
6853;BME280;3465;42.144;24.722;2023-01-31T01:28:08;143742.59;;;3.27;92.14
6853;BME280;3465;42.144;24.722;2023-01-31T01:30:33;143736.38;;;3.24;92.64
6853;BME280;3465;42.144;24.722;2023-01-31T01:32:58;143743.84;;;3.27;92.99
6853;BME280;3465;42.144;24.722;2023-01-31T01:35:24;143745.06;;;3.28;93.34
6853;BME280;3465;42.144;24.722;2023-01-31T01:37:49;143760.03;;;3.34;93.60
6853;BME280;3465;42.144;24.722;2023-01-31T01:40:15;143758.75;;;3.33;93.96
6853;BME280;3465;42.144;24.722;2023-01-31T01:42:40;143773.69;;;3.39;94.06
6853;BME280;3465;42.144;24.722;2023-01-31T01:45:13;143784.88;;;3.44;94.21
6853;BME280;3465;42.144;24.722;2023-01-31T01:47:46;143773.69;;;3.39;94.44
6853;BME280;3465;42.144;24.722;2023-01-31T01:50:35;143794.84;;;3.48;94.68
6853;BME280;3465;42.144;24.722;2023-01-31T01:53:08;143768.75;;;3.37;94.95
6853;BME280;3465;42.144;24.722;2023-01-31T01:58:17;143806.03;;;3.52;94.61
6853;BME280;3465;42.144;24.722;2023-01-31T02:00:46;143787.38;;;3.45;94.78
6853;BME280;3465;42.144;24.722;2023-01-31T02:03:12;143824.69;;;3.60;94.71
6853;BME280;3465;42.144;24.722;2023-01-31T02:05:44;143812.28;;;3.55;94.48
6853;BME280;3465;42.144;24.722;2023-01-31T02:08:11;143825.94;;;3.60;94.35
6853;BME280;3465;42.144;24.722;2023-01-31T02:10:45;143854.56;;;3.72;94.08
6853;BME280;3465;42.144;24.722;2023-01-31T02:13:12;143854.56;;;3.72;94.34
6853;BME280;3465;42.144;24.722;2023-01-31T02:15:37;143848.38;;;3.69;94.08
6853;BME280;3465;42.144;24.722;2023-01-31T02:18:02;143870.75;;;3.78;92.97
6853;BME280;3465;42.144;24.722;2023-01-31T02:36:55;143925.50;;;4.00;91.51
6853;BME280;3465;42.144;24.722;2023-01-31T02:39:52;143923.03;;;3.99;90.89
6853;BME280;3465;42.144;24.722;2023-01-31T02:45:07;143955.41;;;4.12;88.94
6853;BME280;3465;42.144;24.722;2023-01-31T02:48:10;143960.34;;;4.14;88.32
6853;BME280;3465;42.144;24.722;2023-01-31T02:53:32;143980.28;;;4.22;87.21
6853;BME280;3465;42.144;24.722;2023-01-31T02:56:09;144005.19;;;4.32;86.04
6853;BME280;3465;42.144;24.722;2023-01-31T02:59:09;144020.13;;;4.38;85.26
6853;BME280;3465;42.144;24.722;2023-01-31T03:01:39;144020.13;;;4.38;85.09
6853;BME280;3465;42.144;24.722;2023-01-31T03:04:08;144006.44;;;4.33;84.83
6853;BME280;3465;42.144;24.722;2023-01-31T03:09:18;144025.13;;;4.40;85.07
6853;BME280;3465;42.144;24.722;2023-01-31T03:12:18;144037.56;;;4.46;84.24
6853;BME280;3465;42.144;24.722;2023-01-31T03:15:09;144038.84;;;4.46;84.82
6853;BME280;3465;42.144;24.722;2023-01-31T03:20:29;144032.56;;;4.43;85.30
6853;BME280;3465;42.144;24.722;2023-01-31T03:23:07;144025.13;;;4.40;85.41
6853;BME280;3465;42.144;24.722;2023-01-31T03:25:36;144021.38;;;4.39;85.39
6853;BME280;3465;42.144;24.722;2023-01-31T03:28:10;144022.63;;;4.39;85.14
6853;BME280;3465;42.144;24.722;2023-01-31T03:33:47;144036.31;;;4.45;83.62
6853;BME280;3465;42.144;24.722;2023-01-31T03:47:05;143980.28;;;4.22;82.01
6853;BME280;3465;42.144;24.722;2023-01-31T03:49:35;144008.91;;;4.34;82.26
6853;BME280;3465;42.144;24.722;2023-01-31T03:52:07;144020.13;;;4.38;79.94
6853;BME280;3465;42.144;24.722;2023-01-31T03:54:40;144017.66;;;4.37;80.29
6853;BME280;3465;42.144;24.722;2023-01-31T03:57:26;144015.19;;;4.36;79.00
6853;BME280;3465;42.144;24.722;2023-01-31T03:59:56;144000.19;;;4.30;78.79
6853;BME280;3465;42.144;24.722;2023-01-31T04:02:27;143997.72;;;4.29;77.10
6853;BME280;3465;42.144;24.722;2023-01-31T04:05:17;143995.25;;;4.28;76.19
6853;BME280;3465;42.144;24.722;2023-01-31T04:07:44;144001.44;;;4.31;76.34
6853;BME280;3465;42.144;24.722;2023-01-31T04:10:15;143990.25;;;4.26;76.69
6853;BME280;3465;42.144;24.722;2023-01-31T04:12:41;143989.00;;;4.26;76.52
6853;BME280;3465;42.144;24.722;2023-01-31T04:15:08;143955.41;;;4.12;76.94
6853;BME280;3465;42.144;24.722;2023-01-31T04:17:33;143965.34;;;4.16;77.34
6853;BME280;3465;42.144;24.722;2023-01-31T04:19:59;143955.41;;;4.12;77.70
6853;BME280;3465;42.144;24.722;2023-01-31T04:22:25;143954.16;;;4.12;77.32
6853;BME280;3465;42.144;24.722;2023-01-31T04:24:50;143961.63;;;4.15;77.60
6853;BME280;3465;42.144;24.722;2023-01-31T04:27:16;143935.50;;;4.04;78.45
6853;BME280;3465;42.144;24.722;2023-01-31T04:29:41;143954.16;;;4.12;78.73
6853;BME280;3465;42.144;24.722;2023-01-31T04:32:06;143908.09;;;3.93;79.17
6853;BME280;3465;42.144;24.722;2023-01-31T04:34:32;143941.69;;;4.07;79.34
6853;BME280;3465;42.144;24.722;2023-01-31T04:36:57;143947.94;;;4.09;79.69
6853;BME280;3465;42.144;24.722;2023-01-31T04:39:23;143925.50;;;4.00;80.64
6853;BME280;3465;42.144;24.722;2023-01-31T04:41:48;143905.59;;;3.92;81.07
6853;BME280;3465;42.144;24.722;2023-01-31T04:44:14;143909.31;;;3.94;81.60
6853;BME280;3465;42.144;24.722;2023-01-31T04:46:41;143894.41;;;3.88;81.76
6853;BME280;3465;42.144;24.722;2023-01-31T04:49:06;143890.66;;;3.86;82.90
6853;BME280;3465;42.144;24.722;2023-01-31T04:51:32;143872.00;;;3.79;83.52
6853;BME280;3465;42.144;24.722;2023-01-31T04:53:57;143872.00;;;3.79;83.01
6853;BME280;3465;42.144;24.722;2023-01-31T04:56:23;143880.69;;;3.82;82.75
6853;BME280;3465;42.144;24.722;2023-01-31T04:58:48;143873.22;;;3.79;82.96
6853;BME280;3465;42.144;24.722;2023-01-31T05:01:14;143865.75;;;3.76;83.42
6853;BME280;3465;42.144;24.722;2023-01-31T05:03:39;143868.28;;;3.77;82.86
6853;BME280;3465;42.144;24.722;2023-01-31T05:06:05;143863.28;;;3.75;82.81
6853;BME280;3465;42.144;24.722;2023-01-31T05:08:30;143869.50;;;3.78;82.28
6853;BME280;3465;42.144;24.722;2023-01-31T05:10:59;143849.59;;;3.70;82.82
6853;BME280;3465;42.144;24.722;2023-01-31T05:13:25;143844.59;;;3.68;83.10
6853;BME280;3465;42.144;24.722;2023-01-31T05:15:52;143825.94;;;3.60;83.68
6853;BME280;3465;42.144;24.722;2023-01-31T05:18:17;143833.41;;;3.63;84.11
6853;BME280;3465;42.144;24.722;2023-01-31T05:20:42;143801.03;;;3.50;84.29
6853;BME280;3465;42.144;24.722;2023-01-31T05:23:09;143783.66;;;3.43;84.25
6853;BME280;3465;42.144;24.722;2023-01-31T05:25:35;143782.41;;;3.43;84.76
6853;BME280;3465;42.144;24.722;2023-01-31T05:28:02;143779.94;;;3.42;84.50
6853;BME280;3465;42.144;24.722;2023-01-31T05:30:27;143776.19;;;3.40;85.00
6853;BME280;3465;42.144;24.722;2023-01-31T05:32:53;143756.28;;;3.32;84.79
6853;BME280;3465;42.144;24.722;2023-01-31T05:35:18;143803.56;;;3.51;84.79
6853;BME280;3465;42.144;24.722;2023-01-31T05:37:44;143786.13;;;3.44;84.56
6853;BME280;3465;42.144;24.722;2023-01-31T05:40:15;143792.38;;;3.47;84.92
6853;BME280;3465;42.144;24.722;2023-01-31T05:42:41;143797.31;;;3.49;84.42
6853;BME280;3465;42.144;24.722;2023-01-31T05:45:08;143783.66;;;3.43;84.38
6853;BME280;3465;42.144;24.722;2023-01-31T05:47:33;143798.56;;;3.49;84.98
6853;BME280;3465;42.144;24.722;2023-01-31T05:49:59;143751.31;;;3.30;85.54
6853;BME280;3465;42.144;24.722;2023-01-31T05:52:24;143791.13;;;3.46;85.84
6853;BME280;3465;42.144;24.722;2023-01-31T05:54:50;143792.38;;;3.47;86.10
6853;BME280;3465;42.144;24.722;2023-01-31T05:57:15;143769.94;;;3.38;87.22
6853;BME280;3465;42.144;24.722;2023-01-31T05:59:41;143776.19;;;3.40;87.21
6853;BME280;3465;42.144;24.722;2023-01-31T06:02:07;143763.75;;;3.35;87.57
6853;BME280;3465;42.144;24.722;2023-01-31T06:04:36;143762.50;;;3.35;87.55
6853;BME280;3465;42.144;24.722;2023-01-31T06:07:01;143718.97;;;3.17;87.67
6853;BME280;3465;42.144;24.722;2023-01-31T06:09:27;143764.97;;;3.36;88.10
6853;BME280;3465;42.144;24.722;2023-01-31T06:11:52;143773.69;;;3.39;88.44
6853;BME280;3465;42.144;24.722;2023-01-31T06:14:17;143773.69;;;3.39;88.47
6853;BME280;3465;42.144;24.722;2023-01-31T06:16:43;143774.94;;;3.40;88.86
6853;BME280;3465;42.144;24.722;2023-01-31T06:19:08;143777.41;;;3.41;88.87
6853;BME280;3465;42.144;24.722;2023-01-31T06:21:34;143777.41;;;3.41;88.59
6853;BME280;3465;42.144;24.722;2023-01-31T06:24:00;143782.41;;;3.43;88.53
6853;BME280;3465;42.144;24.722;2023-01-31T06:26:25;143788.66;;;3.45;88.40
6853;BME280;3465;42.144;24.722;2023-01-31T06:28:51;143787.38;;;3.45;88.69
6853;BME280;3465;42.144;24.722;2023-01-31T06:31:17;143801.03;;;3.50;88.44
6853;BME280;3465;42.144;24.722;2023-01-31T06:33:42;143812.28;;;3.55;88.84
6853;BME280;3465;42.144;24.722;2023-01-31T06:36:07;143828.47;;;3.61;89.19
6853;BME280;3465;42.144;24.722;2023-01-31T06:38:33;143823.47;;;3.59;88.90
6853;BME280;3465;42.144;24.722;2023-01-31T06:40:58;143847.13;;;3.69;88.65
6853;BME280;3465;42.144;24.722;2023-01-31T06:43:24;143872.00;;;3.79;88.15
6853;BME280;3465;42.144;24.722;2023-01-31T06:45:49;143889.41;;;3.86;87.98
6853;BME280;3465;42.144;24.722;2023-01-31T06:48:15;143911.84;;;3.95;86.79
6853;BME280;3465;42.144;24.722;2023-01-31T06:50:41;143947.94;;;4.09;86.88
6853;BME280;3465;42.144;24.722;2023-01-31T06:53:06;143981.53;;;4.23;86.40
6853;BME280;3465;42.144;24.722;2023-01-31T06:55:32;144023.84;;;4.40;85.46
6853;BME280;3465;42.144;24.722;2023-01-31T06:57:57;144027.63;;;4.42;86.14
6853;BME280;3465;42.144;24.722;2023-01-31T07:00:23;144038.84;;;4.46;86.13
6853;BME280;3465;42.144;24.722;2023-01-31T07:02:52;144050.03;;;4.51;86.52
6853;BME280;3465;42.144;24.722;2023-01-31T07:05:18;144047.56;;;4.50;86.03
6853;BME280;3465;42.144;24.722;2023-01-31T07:07:45;144073.69;;;4.60;86.00
6853;BME280;3465;42.144;24.722;2023-01-31T07:10:11;144079.91;;;4.63;86.02
6853;BME280;3465;42.144;24.722;2023-01-31T07:12:37;144079.91;;;4.63;86.07
6853;BME280;3465;42.144;24.722;2023-01-31T07:15:02;144037.56;;;4.46;86.20
6853;BME280;3465;42.144;24.722;2023-01-31T07:17:28;144077.44;;;4.62;86.26
6853;BME280;3465;42.144;24.722;2023-01-31T07:19:53;144083.63;;;4.64;86.32
6853;BME280;3465;42.144;24.722;2023-01-31T07:22:18;144051.28;;;4.51;86.23
6853;BME280;3465;42.144;24.722;2023-01-31T07:24:44;144089.88;;;4.67;86.86
6853;BME280;3465;42.144;24.722;2023-01-31T07:27:12;144087.41;;;4.66;86.68
6853;BME280;3465;42.144;24.722;2023-01-31T07:29:38;144098.63;;;4.70;86.85
6853;BME280;3465;42.144;24.722;2023-01-31T07:32:03;144114.81;;;4.77;86.59
6853;BME280;3465;42.144;24.722;2023-01-31T07:34:29;144131.00;;;4.83;85.85
6853;BME280;3465;42.144;24.722;2023-01-31T07:36:55;144135.94;;;4.85;86.24
6853;BME280;3465;42.144;24.722;2023-01-31T07:39:20;144140.94;;;4.87;85.32
6853;BME280;3465;42.144;24.722;2023-01-31T07:41:46;144163.38;;;4.96;85.64
6853;BME280;3465;42.144;24.722;2023-01-31T07:44:11;144184.56;;;5.05;84.67
6853;BME280;3465;42.144;24.722;2023-01-31T07:46:37;144184.56;;;5.05;83.86
6853;BME280;3465;42.144;24.722;2023-01-31T07:49:02;144192.03;;;5.08;83.81
6853;BME280;3465;42.144;24.722;2023-01-31T07:51:30;144199.50;;;5.11;84.06
6853;BME280;3465;42.144;24.722;2023-01-31T07:53:56;144172.09;;;5.00;83.73
6853;BME280;3465;42.144;24.722;2023-01-31T07:56:21;144200.75;;;5.11;83.21
6853;BME280;3465;42.144;24.722;2023-01-31T07:58:48;144213.22;;;5.16;82.87
6853;BME280;3465;42.144;24.722;2023-01-31T08:01:18;144209.50;;;5.15;81.85
6853;BME280;3465;42.144;24.722;2023-01-31T08:04:03;144243.13;;;5.28;81.52
6853;BME280;3465;42.144;24.722;2023-01-31T08:06:29;144233.16;;;5.24;81.15
6853;BME280;3465;42.144;24.722;2023-01-31T08:08:56;144280.53;;;5.43;81.22
6853;BME280;3465;42.144;24.722;2023-01-31T08:11:21;144285.53;;;5.45;80.92
6853;BME280;3465;42.144;24.722;2023-01-31T08:13:47;144275.53;;;5.41;80.34
6853;BME280;3465;42.144;24.722;2023-01-31T08:16:13;144309.19;;;5.55;80.92
6853;BME280;3465;42.144;24.722;2023-01-31T08:18:38;144345.34;;;5.69;80.68
6853;BME280;3465;42.144;24.722;2023-01-31T08:21:05;144366.56;;;5.78;80.47
6853;BME280;3465;42.144;24.722;2023-01-31T08:23:30;144357.81;;;5.74;80.34
6853;BME280;3465;42.144;24.722;2023-01-31T08:26:05;144366.56;;;5.78;80.43
6853;BME280;3465;42.144;24.722;2023-01-31T08:28:31;144362.78;;;5.76;79.62
6853;BME280;3465;42.144;24.722;2023-01-31T08:30:57;144359.03;;;5.75;79.80
6853;BME280;3465;42.144;24.722;2023-01-31T08:33:23;144356.56;;;5.74;79.66
6853;BME280;3465;42.144;24.722;2023-01-31T08:35:49;144342.84;;;5.68;80.33
6853;BME280;3465;42.144;24.722;2023-01-31T08:38:14;144399.00;;;5.91;80.35
6853;BME280;3465;42.144;24.722;2023-01-31T08:40:40;144401.50;;;5.92;79.09
6853;BME280;3465;42.144;24.722;2023-01-31T08:43:05;144391.53;;;5.88;80.12
6853;BME280;3465;42.144;24.722;2023-01-31T08:45:32;144410.25;;;5.96;79.81
6853;BME280;3465;42.144;24.722;2023-01-31T08:47:58;144430.22;;;6.04;79.72
6853;BME280;3465;42.144;24.722;2023-01-31T08:50:26;144448.91;;;6.11;80.37
6853;BME280;3465;42.144;24.722;2023-01-31T08:53:10;144491.28;;;6.28;80.53
6853;BME280;3465;42.144;24.722;2023-01-31T08:55:35;144506.31;;;6.34;79.99
6853;BME280;3465;42.144;24.722;2023-01-31T08:58:01;144591.09;;;6.68;79.46
6853;BME280;3465;42.144;24.722;2023-01-31T09:00:29;144659.75;;;6.96;77.72
6853;BME280;3465;42.144;24.722;2023-01-31T09:02:57;144677.25;;;7.03;78.34
6853;BME280;3465;42.144;24.722;2023-01-31T09:05:24;144679.72;;;7.04;78.25
6853;BME280;3465;42.144;24.722;2023-01-31T09:07:50;144705.97;;;7.14;77.98
6853;BME280;3465;42.144;24.722;2023-01-31T09:10:20;144737.19;;;7.27;77.95
6853;BME280;3465;42.144;24.722;2023-01-31T09:12:46;144743.41;;;7.29;76.83
6853;BME280;3465;42.144;24.722;2023-01-31T09:15:12;144728.44;;;7.23;77.43
6853;BME280;3465;42.144;24.722;2023-01-31T09:17:39;144765.91;;;7.39;78.35
6853;BME280;3465;42.144;24.722;2023-01-31T09:20:06;144785.88;;;7.47;78.39
6853;BME280;3465;42.144;24.722;2023-01-31T09:22:33;144858.28;;;7.76;75.22
6853;BME280;3465;42.144;24.722;2023-01-31T09:24:59;144903.28;;;7.94;74.41
6853;BME280;3465;42.144;24.722;2023-01-31T09:27:26;144960.78;;;8.17;73.30
6853;BME280;3465;42.144;24.722;2023-01-31T09:29:52;144994.53;;;8.30;71.17
6853;BME280;3465;42.144;24.722;2023-01-31T09:32:17;145002.03;;;8.33;71.06
6853;BME280;3465;42.144;24.722;2023-01-31T09:34:44;145052.03;;;8.53;69.78
6853;BME280;3465;42.144;24.722;2023-01-31T09:37:11;145052.03;;;8.53;71.39
6853;BME280;3465;42.144;24.722;2023-01-31T09:39:36;145029.56;;;8.44;69.57
6853;BME280;3465;42.144;24.722;2023-01-31T09:42:35;144990.78;;;8.29;71.02
6853;BME280;3465;42.144;24.722;2023-01-31T09:47:53;144890.78;;;7.89;72.25
6853;BME280;3465;42.144;24.722;2023-01-31T09:50:36;144934.50;;;8.06;73.22
6853;BME280;3465;42.144;24.722;2023-01-31T09:53:05;144909.56;;;7.96;72.62
6853;BME280;3465;42.144;24.722;2023-01-31T09:55:35;144968.25;;;8.20;72.46
6853;BME280;3465;42.144;24.722;2023-01-31T09:58:13;144973.28;;;8.22;72.59
6853;BME280;3465;42.144;24.722;2023-01-31T10:00:51;145063.28;;;8.58;70.67
6853;BME280;3465;42.144;24.722;2023-01-31T10:07:00;145085.81;;;8.67;67.95
6853;BME280;3465;42.144;24.722;2023-01-31T10:09:03;145114.53;;;8.79;68.41
6853;BME280;3465;42.144;24.722;2023-01-31T10:11:34;145125.81;;;8.83;67.26
6853;BME280;3465;42.144;24.722;2023-01-31T10:16:46;145114.53;;;8.79;66.97
6853;BME280;3465;42.144;24.722;2023-01-31T10:19:22;145117.06;;;8.80;67.72
6853;BME280;3465;42.144;24.722;2023-01-31T10:22:06;145187.06;;;9.08;66.84
6853;BME280;3465;42.144;24.722;2023-01-31T10:24:56;145244.63;;;9.31;67.37
6853;BME280;3465;42.144;24.722;2023-01-31T10:27:42;145273.41;;;9.42;65.75
6853;BME280;3465;42.144;24.722;2023-01-31T10:30:20;145238.34;;;9.28;65.96
6853;BME280;3465;42.144;24.722;2023-01-31T10:32:52;145272.13;;;9.42;65.62
6853;BME280;3465;42.144;24.722;2023-01-31T10:35:24;145340.97;;;9.69;66.40
6853;BME280;3465;42.144;24.722;2023-01-31T10:37:54;145386.00;;;9.87;63.67
6853;BME280;3465;42.144;24.722;2023-01-31T10:40:27;145444.88;;;10.11;64.20
6853;BME280;3465;42.144;24.722;2023-01-31T10:42:58;145414.75;;;9.99;63.70
6853;BME280;3465;42.144;24.722;2023-01-31T10:45:26;145461.16;;;10.18;63.01
6853;BME280;3465;42.144;24.722;2023-01-31T10:48:13;145409.78;;;9.97;61.51
6853;BME280;3465;42.144;24.722;2023-01-31T10:54:28;145272.13;;;9.42;64.43
6853;BME280;3465;42.144;24.722;2023-01-31T10:56:59;145315.91;;;9.59;63.95
6853;BME280;3465;42.144;24.722;2023-01-31T10:59:33;145335.94;;;9.67;63.74
6853;BME280;3465;42.144;24.722;2023-01-31T11:02:01;145323.41;;;9.62;64.19
6853;BME280;3465;42.144;24.722;2023-01-31T11:04:30;145299.66;;;9.53;64.13
6853;BME280;3465;42.144;24.722;2023-01-31T11:06:58;145223.34;;;9.22;65.01
6853;BME280;3465;42.144;24.722;2023-01-31T11:09:29;145148.31;;;8.92;65.52
6853;BME280;3465;42.144;24.722;2023-01-31T11:11:59;145094.53;;;8.70;67.24
6853;BME280;3465;42.144;24.722;2023-01-31T11:14:25;145089.56;;;8.68;68.16
6853;BME280;3465;42.144;24.722;2023-01-31T11:19:53;145098.28;;;8.72;68.45
6853;BME280;3465;42.144;24.722;2023-01-31T11:22:30;145023.28;;;8.42;67.31
6853;BME280;3465;42.144;24.722;2023-01-31T11:24:58;145067.03;;;8.59;67.83
6853;BME280;3465;42.144;24.722;2023-01-31T11:29:49;145085.81;;;8.67;67.50
6853;BME280;3465;42.144;24.722;2023-01-31T11:32:21;145065.81;;;8.59;67.61
6853;BME280;3465;42.144;24.722;2023-01-31T11:35:31;145047.03;;;8.51;69.31
6853;BME280;3465;42.144;24.722;2023-01-31T11:37:57;145033.31;;;8.46;68.13
6853;BME280;3465;42.144;24.722;2023-01-31T11:40:27;144997.06;;;8.31;69.16
6853;BME280;3465;42.144;24.722;2023-01-31T11:43:05;144984.56;;;8.26;69.43
6853;BME280;3465;42.144;24.722;2023-01-31T11:45:33;144948.25;;;8.12;69.80
6853;BME280;3465;42.144;24.722;2023-01-31T11:48:14;144993.31;;;8.30;69.69
6853;BME280;3465;42.144;24.722;2023-01-31T11:50:50;144992.03;;;8.29;69.90
6853;BME280;3465;42.144;24.722;2023-01-31T11:53:25;144983.28;;;8.26;71.29
6853;BME280;3465;42.144;24.722;2023-01-31T11:55:55;144934.50;;;8.06;71.73
6853;BME280;3465;42.144;24.722;2023-01-31T11:58:28;144924.53;;;8.02;72.18
6853;BME280;3465;42.144;24.722;2023-01-31T12:01:16;144953.28;;;8.14;72.35
6853;BME280;3465;42.144;24.722;2023-01-31T12:04:10;144938.25;;;8.08;70.85
6853;BME280;3465;42.144;24.722;2023-01-31T12:06:40;144928.28;;;8.04;72.31
6853;BME280;3465;42.144;24.722;2023-01-31T12:09:23;144914.50;;;7.98;71.40
6853;BME280;3465;42.144;24.722;2023-01-31T12:11:58;144895.78;;;7.91;72.35
6853;BME280;3465;42.144;24.722;2023-01-31T12:14:36;144895.78;;;7.91;71.70
6853;BME280;3465;42.144;24.722;2023-01-31T12:17:03;144898.25;;;7.92;72.21
6853;BME280;3465;42.144;24.722;2023-01-31T12:22:14;144865.81;;;7.79;72.45
6853;BME280;3465;42.144;24.722;2023-01-31T12:30:38;144845.84;;;7.71;72.11
6853;BME280;3465;42.144;24.722;2023-01-31T12:33:29;144828.34;;;7.64;73.11
6853;BME280;3465;42.144;24.722;2023-01-31T12:41:40;144823.31;;;7.62;72.81
6853;BME280;3465;42.144;24.722;2023-01-31T13:04:32;144749.69;;;7.32;78.92
6853;BME280;3465;42.144;24.722;2023-01-31T13:07:03;144750.88;;;7.32;80.68
6853;BME280;3465;42.144;24.722;2023-01-31T13:09:34;144745.94;;;7.31;82.47
6853;BME280;3465;42.144;24.722;2023-01-31T13:12:14;144729.69;;;7.24;82.96
6853;BME280;3465;42.144;24.722;2023-01-31T13:14:48;144733.44;;;7.25;82.81
6853;BME280;3465;42.144;24.722;2023-01-31T13:17:17;144702.19;;;7.13;82.83
6853;BME280;3465;42.144;24.722;2023-01-31T13:19:52;144686.00;;;7.06;84.00
6853;BME280;3465;42.144;24.722;2023-01-31T13:24:53;144663.50;;;6.97;82.66
6853;BME280;3465;42.144;24.722;2023-01-31T13:27:37;144626.09;;;6.82;83.84
6853;BME280;3465;42.144;24.722;2023-01-31T13:30:16;144623.56;;;6.81;84.26
6853;BME280;3465;42.144;24.722;2023-01-31T13:32:48;144644.78;;;6.90;84.45
6853;BME280;3465;42.144;24.722;2023-01-31T13:35:32;144684.75;;;7.06;83.16
6853;BME280;3465;42.144;24.722;2023-01-31T13:38:02;144694.69;;;7.10;84.05
6853;BME280;3465;42.144;24.722;2023-01-31T13:40:40;144729.69;;;7.24;82.84
6853;BME280;3465;42.144;24.722;2023-01-31T13:43:12;144762.13;;;7.37;81.81
6853;BME280;3465;42.144;24.722;2023-01-31T13:45:42;144785.88;;;7.47;79.15
6853;BME280;3465;42.144;24.722;2023-01-31T13:54:17;144805.88;;;7.55;78.14
6853;BME280;3465;42.144;24.722;2023-01-31T13:56:50;144797.13;;;7.51;79.24
6853;BME280;3465;42.144;24.722;2023-01-31T13:59:21;144792.13;;;7.49;79.00
6853;BME280;3465;42.144;24.722;2023-01-31T14:01:49;144745.94;;;7.31;79.30
6853;BME280;3465;42.144;24.722;2023-01-31T14:09:36;144681.00;;;7.04;79.52
6853;BME280;3465;42.144;24.722;2023-01-31T14:33:03;144573.66;;;6.61;85.18
6853;BME280;3465;42.144;24.722;2023-01-31T14:41:40;144574.88;;;6.62;85.67
6853;BME280;3465;42.144;24.722;2023-01-31T14:47:07;144553.69;;;6.53;85.63
6853;BME280;3465;42.144;24.722;2023-01-31T14:57:46;144517.53;;;6.39;86.59
6853;BME280;3465;42.144;24.722;2023-01-31T15:08:04;144436.41;;;6.06;88.70
6853;BME280;3465;42.144;24.722;2023-01-31T15:13:41;144411.47;;;5.96;89.46
6853;BME280;3465;42.144;24.722;2023-01-31T15:16:28;144384.03;;;5.85;90.17
6853;BME280;3465;42.144;24.722;2023-01-31T15:19:07;144379.03;;;5.83;90.04
6853;BME280;3465;42.144;24.722;2023-01-31T15:21:40;144356.56;;;5.74;90.75
6853;BME280;3465;42.144;24.722;2023-01-31T15:24:18;144350.34;;;5.71;90.44
6853;BME280;3465;42.144;24.722;2023-01-31T15:26:45;144354.09;;;5.73;91.01
6853;BME280;3465;42.144;24.722;2023-01-31T15:29:18;144347.84;;;5.70;91.04
6853;BME280;3465;42.144;24.722;2023-01-31T15:31:48;144316.66;;;5.58;91.95
6853;BME280;3465;42.144;24.722;2023-01-31T15:34:19;144299.19;;;5.51;92.74
6853;BME280;3465;42.144;24.722;2023-01-31T15:37:00;144304.19;;;5.53;92.93
6853;BME280;3465;42.144;24.722;2023-01-31T15:39:37;144286.78;;;5.46;93.33
6853;BME280;3465;42.144;24.722;2023-01-31T15:42:24;144268.03;;;5.38;93.67
6853;BME280;3465;42.144;24.722;2023-01-31T15:45:10;144251.84;;;5.32;93.93
6853;BME280;3465;42.144;24.722;2023-01-31T15:47:35;144249.38;;;5.31;94.53
6853;BME280;3465;42.144;24.722;2023-01-31T15:50:01;144241.91;;;5.28;94.81
6853;BME280;3465;42.144;24.722;2023-01-31T15:52:26;144244.38;;;5.29;94.59
6853;BME280;3465;42.144;24.722;2023-01-31T15:55:02;144259.31;;;5.35;94.75
6853;BME280;3465;42.144;24.722;2023-01-31T15:57:42;144256.84;;;5.34;95.11
6853;BME280;3465;42.144;24.722;2023-01-31T16:00:20;144244.38;;;5.29;95.43
6853;BME280;3465;42.144;24.722;2023-01-31T16:02:46;144228.16;;;5.22;95.67